createdAt,value
2017-11-26T05:00:45.261Z,0
2017-11-26T05:01:10.731Z,0
2017-11-26T05:01:36.313Z,0
2017-11-26T05:02:01.724Z,0
2017-11-26T05:02:27.215Z,0
2017-11-26T05:02:52.725Z,0
2017-11-26T05:03:18.213Z,0
2017-11-26T05:03:43.741Z,0
2017-11-26T05:04:09.236Z,0
2017-11-26T05:04:34.688Z,0
2017-11-26T05:05:00.186Z,0
2017-11-26T05:05:25.661Z,0
2017-11-26T05:05:51.165Z,0
2017-11-26T05:06:16.642Z,0
2017-11-26T05:06:42.116Z,0
2017-11-26T05:07:07.589Z,0
2017-11-26T05:07:33.062Z,0
2017-11-26T05:07:58.542Z,0
2017-11-26T05:08:24.015Z,0
2017-11-26T05:08:49.510Z,0
2017-11-26T05:09:14.976Z,0
2017-11-26T05:09:40.477Z,0
2017-11-26T05:10:05.963Z,0
2017-11-26T05:10:31.436Z,0
2017-11-26T05:10:56.939Z,0
2017-11-26T05:11:22.416Z,0
2017-11-26T05:11:47.897Z,0
2017-11-26T05:12:13.393Z,0
2017-11-26T05:12:38.910Z,0
2017-11-26T05:13:04.397Z,0
2017-11-26T05:13:29.889Z,0
2017-11-26T05:13:55.383Z,0
2017-11-26T05:14:20.890Z,0
2017-11-26T05:14:46.372Z,0
2017-11-26T05:15:11.846Z,0
2017-11-26T05:15:37.315Z,0
2017-11-26T05:16:02.856Z,0
2017-11-26T05:16:28.389Z,0
2017-11-26T05:16:53.857Z,0
2017-11-26T05:17:19.358Z,0
2017-11-26T05:17:44.834Z,0
2017-11-26T05:18:10.355Z,0
2017-11-26T05:18:35.863Z,0
2017-11-26T05:19:01.374Z,0
2017-11-26T05:19:26.844Z,0
2017-11-26T05:19:52.351Z,0
2017-11-26T05:20:17.834Z,0
2017-11-26T05:20:43.334Z,0
2017-11-26T05:21:08.821Z,0
2017-11-26T05:21:34.374Z,0
2017-11-26T05:21:59.920Z,0
2017-11-26T05:22:25.405Z,0
2017-11-26T05:22:50.905Z,0
2017-11-26T05:23:16.376Z,0
2017-11-26T05:23:41.863Z,0
2017-11-26T05:24:07.353Z,0
2017-11-26T05:24:32.791Z,0
2017-11-26T05:24:58.337Z,0
2017-11-26T05:25:23.799Z,0
2017-11-26T05:25:49.271Z,0
2017-11-26T05:26:14.739Z,0
2017-11-26T05:26:40.272Z,0
2017-11-26T05:27:05.767Z,0
2017-11-26T05:27:31.307Z,0
2017-11-26T05:27:56.819Z,0
2017-11-26T05:28:22.270Z,0
2017-11-26T05:28:47.784Z,0
2017-11-26T05:29:13.329Z,0
2017-11-26T05:29:38.819Z,0
2017-11-26T05:30:04.302Z,0
2017-11-26T05:30:29.819Z,0
2017-11-26T05:30:55.315Z,0
2017-11-26T05:31:20.819Z,0
2017-11-26T05:31:46.302Z,0
2017-11-26T05:32:11.752Z,0
2017-11-26T05:32:37.244Z,0
2017-11-26T05:33:02.770Z,0
2017-11-26T05:33:28.216Z,0
2017-11-26T05:33:53.659Z,0
2017-11-26T05:34:19.170Z,0
2017-11-26T05:34:44.656Z,0
2017-11-26T05:35:10.131Z,0
2017-11-26T05:35:35.628Z,0
2017-11-26T05:36:01.114Z,0
2017-11-26T05:36:26.607Z,0
2017-11-26T05:36:52.073Z,0
2017-11-26T05:37:17.570Z,0
2017-11-26T05:37:43.089Z,0
2017-11-26T05:38:08.550Z,0
2017-11-26T05:38:34.070Z,0
2017-11-26T05:38:59.551Z,0
2017-11-26T05:39:25.051Z,0
2017-11-26T05:39:50.563Z,0
2017-11-26T05:40:16.043Z,0
2017-11-26T05:40:41.579Z,0
2017-11-26T05:41:07.040Z,0
2017-11-26T05:41:32.545Z,0
2017-11-26T05:41:58.029Z,0
2017-11-26T05:42:23.523Z,0
2017-11-26T05:42:49.044Z,0
2017-11-26T05:43:14.532Z,0
2017-11-26T05:43:40.004Z,0
2017-11-26T05:44:05.457Z,0
2017-11-26T05:44:30.997Z,0
2017-11-26T05:44:56.440Z,0
2017-11-26T05:45:21.927Z,0
2017-11-26T05:45:47.438Z,0
2017-11-26T05:46:12.935Z,0
2017-11-26T05:46:38.416Z,0
2017-11-26T05:47:03.918Z,0
2017-11-26T05:47:29.388Z,0
2017-11-26T05:47:54.875Z,0
2017-11-26T05:48:20.334Z,0
2017-11-26T05:48:45.872Z,0
2017-11-26T05:49:11.416Z,0
2017-11-26T05:49:36.899Z,0
2017-11-26T05:50:02.373Z,0
2017-11-26T05:50:27.878Z,0
2017-11-26T05:50:53.385Z,0
2017-11-26T05:51:18.888Z,0
2017-11-26T05:51:44.400Z,0
2017-11-26T05:52:09.896Z,0
2017-11-26T05:52:35.372Z,0
2017-11-26T05:53:00.879Z,0
2017-11-26T05:53:26.353Z,0
2017-11-26T05:53:51.826Z,0
2017-11-26T05:54:17.315Z,0
2017-11-26T05:54:42.812Z,0
2017-11-26T05:55:08.307Z,0
2017-11-26T05:55:33.789Z,0
2017-11-26T05:55:59.263Z,0
2017-11-26T05:56:24.791Z,0
2017-11-26T05:56:50.281Z,0
2017-11-26T05:57:15.817Z,0
2017-11-26T05:57:41.308Z,0
2017-11-26T05:58:06.786Z,0
2017-11-26T05:58:32.324Z,0
2017-11-26T05:58:57.803Z,0
2017-11-26T05:59:23.324Z,0
2017-11-26T05:59:48.874Z,0
2017-11-26T06:00:14.315Z,0
2017-11-26T06:00:39.827Z,0
2017-11-26T06:01:05.320Z,0
2017-11-26T06:01:30.800Z,0
2017-11-26T06:01:56.317Z,0
2017-11-26T06:02:21.767Z,0
2017-11-26T06:02:47.265Z,0
2017-11-26T06:03:12.803Z,0
2017-11-26T06:03:38.282Z,0
2017-11-26T06:04:03.756Z,0
2017-11-26T06:04:29.259Z,0
2017-11-26T06:04:54.744Z,0
2017-11-26T06:05:20.205Z,0
2017-11-26T06:05:45.700Z,0
2017-11-26T06:06:11.204Z,0
2017-11-26T06:06:36.711Z,0
2017-11-26T06:07:02.227Z,0
2017-11-26T06:07:27.725Z,0
2017-11-26T06:07:53.190Z,0
2017-11-26T06:08:18.691Z,0
2017-11-26T06:08:44.207Z,0
2017-11-26T06:09:09.710Z,0
2017-11-26T06:09:35.181Z,0
2017-11-26T06:10:00.706Z,0
2017-11-26T06:10:26.174Z,0
2017-11-26T06:10:51.683Z,0
2017-11-26T06:11:17.172Z,0
2017-11-26T06:11:42.680Z,0
2017-11-26T06:12:08.217Z,0
2017-11-26T06:12:33.679Z,0
2017-11-26T06:12:59.164Z,0
2017-11-26T06:13:24.685Z,0
2017-11-26T06:13:50.147Z,0
2017-11-26T06:14:15.693Z,0
2017-11-26T06:14:41.163Z,0
2017-11-26T06:15:06.646Z,0
2017-11-26T06:15:32.159Z,0
2017-11-26T06:15:57.665Z,0
2017-11-26T06:16:23.151Z,0
2017-11-26T06:16:48.649Z,0
2017-11-26T06:17:14.103Z,0
2017-11-26T06:17:39.589Z,0
2017-11-26T06:18:05.070Z,0
2017-11-26T06:18:30.536Z,0
2017-11-26T06:18:56.009Z,0
2017-11-26T06:19:21.507Z,0
2017-11-26T06:19:47.042Z,0
2017-11-26T06:20:12.538Z,0
2017-11-26T06:20:38.017Z,0
2017-11-26T06:21:03.507Z,0
2017-11-26T06:21:29.020Z,0
2017-11-26T06:21:54.494Z,0
2017-11-26T06:22:20.015Z,0
2017-11-26T06:22:45.534Z,0
2017-11-26T06:23:10.973Z,0
2017-11-26T06:23:36.441Z,0
2017-11-26T06:24:01.920Z,0
2017-11-26T06:24:27.434Z,0
2017-11-26T06:24:52.943Z,0
2017-11-26T06:25:18.401Z,0
2017-11-26T06:25:43.899Z,0
2017-11-26T06:26:09.391Z,0
2017-11-26T06:26:34.870Z,0
2017-11-26T06:27:00.412Z,0
2017-11-26T06:27:25.908Z,0
2017-11-26T06:27:51.385Z,0
2017-11-26T06:28:16.861Z,0
2017-11-26T06:28:42.356Z,0
2017-11-26T06:29:07.859Z,0
2017-11-26T06:29:33.316Z,0
2017-11-26T06:29:58.812Z,0
2017-11-26T06:30:24.337Z,0
2017-11-26T06:30:49.841Z,0
2017-11-26T06:31:15.370Z,0
2017-11-26T06:31:41.018Z,0
2017-11-26T06:32:06.526Z,0
2017-11-26T06:32:32.007Z,0
2017-11-26T06:32:57.510Z,0
2017-11-26T06:33:22.996Z,0
2017-11-26T06:33:48.519Z,4
2017-11-26T06:34:13.973Z,4
2017-11-26T06:34:39.519Z,4
2017-11-26T06:35:05.036Z,4
2017-11-26T06:35:30.515Z,0
2017-11-26T06:35:56.031Z,0
2017-11-26T06:36:21.538Z,0
2017-11-26T06:36:46.989Z,4
2017-11-26T06:37:12.460Z,4
2017-11-26T06:37:37.945Z,4
2017-11-26T06:38:03.518Z,4
2017-11-26T06:38:29.025Z,8
2017-11-26T06:38:54.532Z,4
2017-11-26T06:39:20.039Z,4
2017-11-26T06:39:45.506Z,4
2017-11-26T06:40:11.025Z,4
2017-11-26T06:40:36.508Z,4
2017-11-26T06:41:01.979Z,8
2017-11-26T06:41:27.517Z,4
2017-11-26T06:41:52.994Z,8
2017-11-26T06:42:18.498Z,8
2017-11-26T06:42:43.961Z,8
2017-11-26T06:43:09.447Z,8
2017-11-26T06:43:34.948Z,8
2017-11-26T06:44:00.472Z,8
2017-11-26T06:44:25.954Z,8
2017-11-26T06:44:51.445Z,12
2017-11-26T06:45:16.955Z,12
2017-11-26T06:45:42.419Z,12
2017-11-26T06:46:07.878Z,12
2017-11-26T06:46:33.369Z,12
2017-11-26T06:46:58.847Z,16
2017-11-26T06:47:24.323Z,16
2017-11-26T06:47:49.836Z,16
2017-11-26T06:48:15.318Z,16
2017-11-26T06:48:40.771Z,20
2017-11-26T06:49:06.246Z,20
2017-11-26T06:49:31.754Z,20
2017-11-26T06:49:57.265Z,28
2017-11-26T06:50:22.782Z,28
2017-11-26T06:50:48.241Z,28
2017-11-26T06:51:13.714Z,28
2017-11-26T06:51:39.219Z,32
2017-11-26T06:52:04.729Z,36
2017-11-26T06:52:30.232Z,36
2017-11-26T06:52:55.696Z,36
2017-11-26T06:53:21.181Z,36
2017-11-26T06:53:46.657Z,40
2017-11-26T06:54:12.207Z,40
2017-11-26T06:54:37.660Z,40
2017-11-26T06:55:03.181Z,44
2017-11-26T06:55:28.708Z,44
2017-11-26T06:55:54.177Z,44
2017-11-26T06:56:19.669Z,44
2017-11-26T06:56:45.203Z,48
2017-11-26T06:57:10.694Z,52
2017-11-26T06:57:36.199Z,52
2017-11-26T06:58:01.656Z,56
2017-11-26T06:58:27.154Z,56
2017-11-26T06:58:52.639Z,60
2017-11-26T06:59:18.113Z,64
2017-11-26T06:59:43.598Z,64
2017-11-26T07:00:09.080Z,72
2017-11-26T07:00:34.551Z,76
2017-11-26T07:01:00.045Z,80
2017-11-26T07:01:25.529Z,88
2017-11-26T07:01:51.004Z,92
2017-11-26T07:02:16.462Z,92
2017-11-26T07:02:41.935Z,92
2017-11-26T07:03:07.453Z,92
2017-11-26T07:03:32.926Z,92
2017-11-26T07:03:58.436Z,96
2017-11-26T07:04:23.941Z,96
2017-11-26T07:04:49.416Z,100
2017-11-26T07:05:14.899Z,108
2017-11-26T07:05:40.373Z,116
2017-11-26T07:06:05.875Z,124
2017-11-26T07:06:31.384Z,128
2017-11-26T07:06:56.916Z,136
2017-11-26T07:07:22.432Z,124
2017-11-26T07:07:47.930Z,116
2017-11-26T07:08:13.395Z,116
2017-11-26T07:08:38.869Z,120
2017-11-26T07:09:04.350Z,124
2017-11-26T07:09:29.827Z,132
2017-11-26T07:09:55.303Z,140
2017-11-26T07:10:20.819Z,160
2017-11-26T07:10:46.283Z,172
2017-11-26T07:11:11.805Z,184
2017-11-26T07:11:37.303Z,188
2017-11-26T07:12:02.747Z,204
2017-11-26T07:12:28.226Z,208
2017-11-26T07:12:53.726Z,220
2017-11-26T07:13:19.185Z,228
2017-11-26T07:13:44.661Z,240
2017-11-26T07:14:10.137Z,244
2017-11-26T07:14:35.652Z,248
2017-11-26T07:15:01.131Z,256
2017-11-26T07:15:26.656Z,260
2017-11-26T07:15:52.222Z,256
2017-11-26T07:16:17.667Z,256
2017-11-26T07:16:43.153Z,260
2017-11-26T07:17:08.662Z,260
2017-11-26T07:17:34.192Z,284
2017-11-26T07:17:59.700Z,284
2017-11-26T07:18:25.159Z,272
2017-11-26T07:18:50.640Z,288
2017-11-26T07:19:16.100Z,320
2017-11-26T07:19:41.563Z,320
2017-11-26T07:20:07.075Z,324
2017-11-26T07:20:32.551Z,340
2017-11-26T07:20:58.080Z,344
2017-11-26T07:21:23.552Z,320
2017-11-26T07:21:49.030Z,320
2017-11-26T07:22:14.519Z,356
2017-11-26T07:22:40.000Z,388
2017-11-26T07:23:05.479Z,416
2017-11-26T07:23:30.975Z,428
2017-11-26T07:23:56.403Z,436
2017-11-26T07:24:21.862Z,404
2017-11-26T07:24:47.337Z,356
2017-11-26T07:25:12.856Z,328
2017-11-26T07:25:38.349Z,300
2017-11-26T07:26:03.819Z,332
2017-11-26T07:26:29.280Z,340
2017-11-26T07:26:54.783Z,360
2017-11-26T07:27:20.287Z,400
2017-11-26T07:27:45.803Z,400
2017-11-26T07:28:11.291Z,380
2017-11-26T07:28:36.798Z,408
2017-11-26T07:29:02.251Z,436
2017-11-26T07:29:27.769Z,468
2017-11-26T07:29:53.236Z,484
2017-11-26T07:30:18.735Z,468
2017-11-26T07:30:44.204Z,464
2017-11-26T07:31:09.668Z,452
2017-11-26T07:31:35.165Z,404
2017-11-26T07:32:00.620Z,392
2017-11-26T07:32:26.183Z,372
2017-11-26T07:32:51.658Z,352
2017-11-26T07:33:17.134Z,368
2017-11-26T07:33:42.616Z,440
2017-11-26T07:34:08.148Z,520
2017-11-26T07:34:33.576Z,580
2017-11-26T07:34:59.067Z,624
2017-11-26T07:35:24.554Z,632
2017-11-26T07:35:50.034Z,612
2017-11-26T07:36:15.472Z,604
2017-11-26T07:36:40.920Z,608
2017-11-26T07:37:06.421Z,572
2017-11-26T07:37:31.936Z,560
2017-11-26T07:37:57.429Z,592
2017-11-26T07:38:22.882Z,612
2017-11-26T07:38:48.380Z,656
2017-11-26T07:39:13.842Z,668
2017-11-26T07:39:39.302Z,684
2017-11-26T07:40:04.773Z,688
2017-11-26T07:40:30.246Z,740
2017-11-26T07:40:55.729Z,768
2017-11-26T07:41:21.176Z,760
2017-11-26T07:41:46.637Z,780
2017-11-26T07:42:12.213Z,784
2017-11-26T07:42:37.779Z,800
2017-11-26T07:43:03.313Z,792
2017-11-26T07:43:28.770Z,776
2017-11-26T07:43:54.285Z,712
2017-11-26T07:44:19.761Z,696
2017-11-26T07:44:45.229Z,692
2017-11-26T07:45:10.800Z,712
2017-11-26T07:45:36.235Z,756
2017-11-26T07:46:01.680Z,780
2017-11-26T07:46:27.187Z,808
2017-11-26T07:46:52.675Z,828
2017-11-26T07:47:18.191Z,876
2017-11-26T07:47:43.679Z,856
2017-11-26T07:48:09.154Z,848
2017-11-26T07:48:34.639Z,876
2017-11-26T07:49:00.098Z,808
2017-11-26T07:49:25.659Z,776
2017-11-26T07:49:51.098Z,712
2017-11-26T07:50:16.567Z,640
2017-11-26T07:50:42.050Z,652
2017-11-26T07:51:07.546Z,712
2017-11-26T07:51:32.999Z,744
2017-11-26T07:51:58.457Z,808
2017-11-26T07:52:23.920Z,784
2017-11-26T07:52:49.390Z,824
2017-11-26T07:53:14.914Z,908
2017-11-26T07:53:40.433Z,1032
2017-11-26T07:54:05.913Z,960
2017-11-26T07:54:31.361Z,880
2017-11-26T07:54:56.826Z,808
2017-11-26T07:55:22.273Z,804
2017-11-26T07:55:47.798Z,808
2017-11-26T07:56:13.272Z,796
2017-11-26T07:56:38.754Z,936
2017-11-26T07:57:04.211Z,1152
2017-11-26T07:57:29.709Z,1060
2017-11-26T07:57:55.190Z,964
2017-11-26T07:58:20.637Z,1132
2017-11-26T07:58:46.174Z,1304
2017-11-26T07:59:11.691Z,1520
2017-11-26T07:59:37.166Z,1380
2017-11-26T08:00:02.635Z,1256
2017-11-26T08:00:28.158Z,1288
2017-11-26T08:00:53.664Z,1264
2017-11-26T08:01:19.113Z,1304
2017-11-26T08:01:44.612Z,1448
2017-11-26T08:02:10.093Z,1592
2017-11-26T08:02:35.569Z,1472
2017-11-26T08:03:01.134Z,1172
2017-11-26T08:03:26.542Z,952
2017-11-26T08:03:52.056Z,844
2017-11-26T08:04:17.539Z,804
2017-11-26T08:04:43.026Z,836
2017-11-26T08:05:08.487Z,872
2017-11-26T08:05:33.950Z,948
2017-11-26T08:05:59.472Z,1044
2017-11-26T08:06:24.954Z,1148
2017-11-26T08:06:50.375Z,1212
2017-11-26T08:07:15.897Z,1164
2017-11-26T08:07:41.379Z,1116
2017-11-26T08:08:06.905Z,1096
2017-11-26T08:08:32.415Z,1012
2017-11-26T08:08:57.859Z,912
2017-11-26T08:09:23.334Z,996
2017-11-26T08:09:48.838Z,972
2017-11-26T08:10:14.286Z,1048
2017-11-26T08:10:39.797Z,1140
2017-11-26T08:11:05.331Z,1120
2017-11-26T08:11:30.833Z,1144
2017-11-26T08:11:56.319Z,1232
2017-11-26T08:12:21.770Z,1380
2017-11-26T08:12:47.280Z,1580
2017-11-26T08:13:12.758Z,1528
2017-11-26T08:13:38.224Z,1544
2017-11-26T08:14:03.696Z,1392
2017-11-26T08:14:29.201Z,1004
2017-11-26T08:14:54.695Z,1004
2017-11-26T08:15:20.189Z,1160
2017-11-26T08:15:45.673Z,1212
2017-11-26T08:16:11.142Z,1256
2017-11-26T08:16:36.663Z,1428
2017-11-26T08:17:02.173Z,1528
2017-11-26T08:17:27.685Z,1680
2017-11-26T08:17:53.160Z,1964
2017-11-26T08:18:18.652Z,2268
2017-11-26T08:18:44.156Z,2504
2017-11-26T08:19:09.701Z,2636
2017-11-26T08:19:35.189Z,2820
2017-11-26T08:20:00.690Z,2840
2017-11-26T08:20:26.174Z,2948
2017-11-26T08:20:51.707Z,2856
2017-11-26T08:21:17.148Z,2592
2017-11-26T08:21:42.622Z,2192
2017-11-26T08:22:08.082Z,2272
2017-11-26T08:22:33.595Z,2248
2017-11-26T08:22:59.072Z,2752
2017-11-26T08:23:24.572Z,3084
2017-11-26T08:23:50.035Z,3160
2017-11-26T08:24:15.496Z,2900
2017-11-26T08:24:41.028Z,2740
2017-11-26T08:25:06.495Z,2800
2017-11-26T08:25:31.975Z,3332
2017-11-26T08:25:57.440Z,3424
2017-11-26T08:26:22.904Z,3464
2017-11-26T08:26:48.396Z,3316
2017-11-26T08:27:13.928Z,3020
2017-11-26T08:27:39.425Z,2776
2017-11-26T08:28:04.917Z,2760
2017-11-26T08:28:30.395Z,2704
2017-11-26T08:28:55.853Z,2916
2017-11-26T08:29:21.304Z,3080
2017-11-26T08:29:46.829Z,2604
2017-11-26T08:30:12.276Z,2096
2017-11-26T08:30:37.762Z,1860
2017-11-26T08:31:03.249Z,2216
2017-11-26T08:31:28.730Z,2392
2017-11-26T08:31:54.207Z,2220
2017-11-26T08:32:19.761Z,2220
2017-11-26T08:32:45.246Z,2372
2017-11-26T08:33:10.731Z,2368
2017-11-26T08:33:36.217Z,2552
2017-11-26T08:34:01.733Z,2656
2017-11-26T08:34:27.213Z,2636
2017-11-26T08:34:52.655Z,2644
2017-11-26T08:35:18.204Z,2524
2017-11-26T08:35:43.718Z,2492
2017-11-26T08:36:09.192Z,2428
2017-11-26T08:36:34.768Z,2264
2017-11-26T08:37:00.194Z,2256
2017-11-26T08:37:25.714Z,2376
2017-11-26T08:37:51.170Z,2420
2017-11-26T08:38:16.655Z,2488
2017-11-26T08:38:42.272Z,2540
2017-11-26T08:39:07.694Z,2576
2017-11-26T08:39:33.169Z,2636
2017-11-26T08:39:58.661Z,2724
2017-11-26T08:40:24.147Z,2756
2017-11-26T08:40:49.677Z,2796
2017-11-26T08:41:15.171Z,2768
2017-11-26T08:41:40.623Z,2760
2017-11-26T08:42:06.116Z,2612
2017-11-26T08:42:31.574Z,2484
2017-11-26T08:42:57.029Z,2280
2017-11-26T08:43:22.520Z,2376
2017-11-26T08:43:47.991Z,2556
2017-11-26T08:44:13.495Z,2644
2017-11-26T08:44:39.025Z,2688
2017-11-26T08:45:04.533Z,2676
2017-11-26T08:45:30.031Z,2772
2017-11-26T08:45:55.497Z,2832
2017-11-26T08:46:20.985Z,2768
2017-11-26T08:46:46.451Z,2496
2017-11-26T08:47:11.948Z,2580
2017-11-26T08:47:37.407Z,2624
2017-11-26T08:48:02.899Z,2560
2017-11-26T08:48:28.443Z,2568
2017-11-26T08:48:54.035Z,2592
2017-11-26T08:49:19.506Z,2636
2017-11-26T08:49:45.084Z,2756
2017-11-26T08:50:10.601Z,3064
2017-11-26T08:50:36.065Z,3520
2017-11-26T08:51:01.582Z,3888
2017-11-26T08:51:27.068Z,4172
2017-11-26T08:51:52.556Z,4176
2017-11-26T08:52:18.061Z,4068
2017-11-26T08:52:43.511Z,3996
2017-11-26T08:53:08.990Z,3816
2017-11-26T08:53:34.508Z,3744
2017-11-26T08:53:59.992Z,3520
2017-11-26T08:54:25.569Z,3340
2017-11-26T08:54:50.992Z,3116
2017-11-26T08:55:16.497Z,2920
2017-11-26T08:55:41.891Z,2840
2017-11-26T08:56:07.391Z,2936
2017-11-26T08:56:32.892Z,3108
2017-11-26T08:56:58.542Z,3104
2017-11-26T08:57:24.057Z,3444
2017-11-26T08:57:49.525Z,3684
2017-11-26T08:58:15.008Z,3804
2017-11-26T08:58:40.494Z,3644
2017-11-26T08:59:05.970Z,3416
2017-11-26T08:59:31.470Z,3120
2017-11-26T08:59:56.941Z,2952
2017-11-26T09:00:22.454Z,3120
2017-11-26T09:00:48.038Z,3508
2017-11-26T09:01:13.521Z,3788
2017-11-26T09:01:38.969Z,3680
2017-11-26T09:02:04.450Z,3472
2017-11-26T09:02:29.965Z,3988
2017-11-26T09:02:55.483Z,4344
2017-11-26T09:03:20.933Z,4148
2017-11-26T09:03:46.407Z,3576
2017-11-26T09:04:11.885Z,3688
2017-11-26T09:04:37.398Z,3440
2017-11-26T09:05:02.869Z,3348
2017-11-26T09:05:28.354Z,3248
2017-11-26T09:05:53.866Z,3300
2017-11-26T09:06:19.341Z,3720
2017-11-26T09:06:44.864Z,4012
2017-11-26T09:07:10.350Z,3432
2017-11-26T09:07:35.813Z,2820
2017-11-26T09:08:01.269Z,2556
2017-11-26T09:08:26.755Z,2620
2017-11-26T09:08:52.256Z,2780
2017-11-26T09:09:17.705Z,2652
2017-11-26T09:09:43.202Z,2648
2017-11-26T09:10:08.688Z,2632
2017-11-26T09:10:34.187Z,2616
2017-11-26T09:11:37.867Z,2968
2017-11-26T09:12:03.336Z,3100
2017-11-26T09:12:28.836Z,3076
2017-11-26T09:12:54.287Z,3240
2017-11-26T09:13:19.755Z,3488
2017-11-26T09:13:45.223Z,3640
2017-11-26T09:14:10.701Z,3704
2017-11-26T09:14:36.209Z,3580
2017-11-26T09:15:01.713Z,3624
2017-11-26T09:15:27.174Z,3816
2017-11-26T09:15:52.658Z,3600
2017-11-26T09:16:18.135Z,3272
2017-11-26T09:16:43.610Z,3096
2017-11-26T09:17:09.087Z,3180
2017-11-26T09:17:34.602Z,3292
2017-11-26T09:18:00.099Z,3432
2017-11-26T09:18:25.565Z,3456
2017-11-26T09:18:51.019Z,3552
2017-11-26T09:19:16.490Z,3384
2017-11-26T09:19:41.999Z,3328
2017-11-26T09:20:07.532Z,3176
2017-11-26T09:20:33.006Z,3356
2017-11-26T09:20:58.516Z,3420
2017-11-26T09:21:24.005Z,3608
2017-11-26T09:21:49.477Z,3680
2017-11-26T09:22:15.000Z,3852
2017-11-26T09:22:40.442Z,3832
2017-11-26T09:23:05.908Z,3604
2017-11-26T09:23:31.391Z,3812
2017-11-26T09:23:56.875Z,4100
2017-11-26T09:24:22.317Z,4364
2017-11-26T09:24:47.828Z,3908
2017-11-26T09:25:13.355Z,3008
2017-11-26T09:25:38.819Z,3032
2017-11-26T09:26:04.306Z,3036
2017-11-26T09:26:29.793Z,3152
2017-11-26T09:26:55.269Z,3512
2017-11-26T09:27:58.882Z,4180
2017-11-26T09:28:24.361Z,4088
2017-11-26T09:28:49.874Z,4188
2017-11-26T09:29:15.362Z,4128
2017-11-26T09:29:40.854Z,4300
2017-11-26T09:30:06.319Z,4828
2017-11-26T09:30:31.768Z,4612
2017-11-26T09:30:57.304Z,3960
2017-11-26T09:31:22.733Z,4044
2017-11-26T09:31:48.295Z,4320
2017-11-26T09:32:13.809Z,4200
2017-11-26T09:32:39.245Z,4236
2017-11-26T09:33:04.755Z,4224
2017-11-26T09:33:30.200Z,3708
2017-11-26T09:33:55.668Z,3440
2017-11-26T09:34:21.157Z,3296
2017-11-26T09:34:46.678Z,3388
2017-11-26T09:35:12.156Z,3264
2017-11-26T09:35:37.636Z,2948
2017-11-26T09:36:03.124Z,2552
2017-11-26T09:36:28.666Z,2696
2017-11-26T09:36:54.135Z,3048
2017-11-26T09:37:19.632Z,3168
2017-11-26T09:37:45.132Z,3368
2017-11-26T09:38:10.585Z,3216
2017-11-26T09:38:36.085Z,2864
2017-11-26T09:39:01.571Z,2580
2017-11-26T09:39:27.089Z,2160
2017-11-26T09:39:52.581Z,1892
2017-11-26T09:40:18.044Z,2160
2017-11-26T09:40:43.495Z,2156
2017-11-26T09:41:09.046Z,2232
2017-11-26T09:41:34.513Z,2420
2017-11-26T09:42:00.029Z,2568
2017-11-26T09:42:25.519Z,2520
2017-11-26T09:42:50.982Z,2484
2017-11-26T09:43:16.478Z,2880
2017-11-26T09:43:41.973Z,2764
2017-11-26T09:44:07.449Z,2428
2017-11-26T09:44:32.957Z,2420
2017-11-26T09:44:58.428Z,2648
2017-11-26T09:45:23.890Z,3248
2017-11-26T09:45:49.410Z,3904
2017-11-26T09:46:14.821Z,4148
2017-11-26T09:46:40.339Z,4168
2017-11-26T09:47:05.893Z,4468
2017-11-26T09:47:31.402Z,4396
2017-11-26T09:47:56.895Z,3944
2017-11-26T09:48:22.355Z,4136
2017-11-26T09:48:47.833Z,4856
2017-11-26T09:49:13.271Z,4212
2017-11-26T09:49:38.824Z,3816
2017-11-26T09:50:04.341Z,4004
2017-11-26T09:50:29.824Z,4412
2017-11-26T09:50:55.283Z,4568
2017-11-26T09:51:20.742Z,4732
2017-11-26T09:51:46.180Z,5100
2017-11-26T09:52:11.653Z,5496
2017-11-26T09:52:37.153Z,5816
2017-11-26T09:53:02.631Z,6040
2017-11-26T09:53:28.128Z,5820
2017-11-26T09:53:53.642Z,5852
2017-11-26T09:54:19.115Z,7408
2017-11-26T09:54:44.560Z,7324
2017-11-26T09:55:10.029Z,5980
2017-11-26T09:55:35.519Z,5788
2017-11-26T09:56:01.025Z,5860
2017-11-26T09:56:26.504Z,6052
2017-11-26T09:56:52.004Z,5976
2017-11-26T09:57:17.537Z,5408
2017-11-26T09:57:43.022Z,4608
2017-11-26T09:58:08.503Z,3968
2017-11-26T09:58:33.997Z,3064
2017-11-26T09:58:59.494Z,2676
2017-11-26T09:59:25.027Z,2684
2017-11-26T09:59:50.527Z,2572
2017-11-26T10:00:16.050Z,2752
2017-11-26T10:00:41.537Z,3072
2017-11-26T10:01:06.997Z,2828
2017-11-26T10:01:32.454Z,2868
2017-11-26T10:01:57.942Z,3056
2017-11-26T10:02:23.416Z,2772
2017-11-26T10:02:48.923Z,2624
2017-11-26T10:03:14.397Z,2920
2017-11-26T10:03:39.896Z,3264
2017-11-26T10:04:05.329Z,3044
2017-11-26T10:04:30.794Z,2708
2017-11-26T10:04:56.311Z,2500
2017-11-26T10:05:21.792Z,2656
2017-11-26T10:05:47.258Z,2908
2017-11-26T10:06:12.746Z,3040
2017-11-26T10:06:38.285Z,3208
2017-11-26T10:07:03.792Z,3184
2017-11-26T10:07:29.253Z,2896
2017-11-26T10:07:54.764Z,2796
2017-11-26T10:08:20.233Z,3148
2017-11-26T10:08:45.696Z,3312
2017-11-26T10:09:11.171Z,3436
2017-11-26T10:09:36.633Z,3372
2017-11-26T10:11:00.635Z,3408
2017-11-26T10:11:26.342Z,4300
2017-11-26T10:11:51.815Z,4660
2017-11-26T10:12:55.478Z,4120
2017-11-26T10:13:20.880Z,3848
2017-11-26T10:13:46.432Z,3188
2017-11-26T10:14:11.909Z,2808
2017-11-26T10:14:37.427Z,2824
2017-11-26T10:15:02.933Z,3368
2017-11-26T10:15:28.400Z,3400
2017-11-26T10:15:53.845Z,3564
2017-11-26T10:16:19.323Z,3756
2017-11-26T10:16:44.839Z,3580
2017-11-26T10:17:10.245Z,3312
2017-11-26T10:17:35.767Z,3120
2017-11-26T10:18:01.221Z,3200
2017-11-26T10:18:26.695Z,3100
2017-11-26T10:18:52.140Z,3196
2017-11-26T10:19:17.651Z,3236
2017-11-26T10:19:43.128Z,2692
2017-11-26T10:20:08.593Z,2480
2017-11-26T10:20:34.115Z,2740
2017-11-26T10:20:59.592Z,2844
2017-11-26T10:21:25.068Z,3112
2017-11-26T10:21:50.560Z,3364
2017-11-26T10:22:15.993Z,3036
2017-11-26T10:22:41.478Z,2552
2017-11-26T10:23:06.946Z,2060
2017-11-26T10:23:32.402Z,1704
2017-11-26T10:23:57.880Z,1652
2017-11-26T10:24:23.352Z,1792
2017-11-26T10:24:48.809Z,1792
2017-11-26T10:25:14.320Z,1724
2017-11-26T10:25:39.790Z,1812
2017-11-26T10:26:05.288Z,1920
2017-11-26T10:26:30.777Z,2036
2017-11-26T10:26:56.229Z,2004
2017-11-26T10:27:21.761Z,1936
2017-11-26T10:27:47.226Z,2076
2017-11-26T10:28:12.680Z,2304
2017-11-26T10:28:38.183Z,2524
2017-11-26T10:29:03.659Z,2656
2017-11-26T10:29:29.139Z,3012
2017-11-26T10:29:54.648Z,3156
2017-11-26T10:30:20.112Z,3220
2017-11-26T10:30:45.597Z,3428
2017-11-26T10:31:11.065Z,3348
2017-11-26T10:31:36.544Z,3112
2017-11-26T10:32:02.021Z,3640
2017-11-26T10:32:27.508Z,3960
2017-11-26T10:32:52.968Z,4556
2017-11-26T10:33:18.489Z,4824
2017-11-26T10:33:43.969Z,4796
2017-11-26T10:34:09.438Z,4572
2017-11-26T10:34:34.927Z,4356
2017-11-26T10:35:00.422Z,4124
2017-11-26T10:35:25.891Z,4056
2017-11-26T10:35:51.368Z,3752
2017-11-26T10:36:16.824Z,3772
2017-11-26T10:36:42.319Z,3620
2017-11-26T10:37:07.825Z,3624
2017-11-26T10:37:33.310Z,3568
2017-11-26T10:37:58.821Z,3292
2017-11-26T10:38:24.298Z,3024
2017-11-26T10:38:49.810Z,3000
2017-11-26T10:39:15.302Z,2980
2017-11-26T10:39:40.776Z,2616
2017-11-26T10:40:06.278Z,2416
2017-11-26T10:40:31.782Z,2532
2017-11-26T10:40:57.249Z,2932
2017-11-26T10:41:22.743Z,3432
2017-11-26T10:41:48.234Z,3960
2017-11-26T10:42:13.750Z,4420
2017-11-26T10:42:39.279Z,4620
2017-11-26T10:43:04.765Z,4416
2017-11-26T10:43:30.272Z,4252
2017-11-26T10:43:55.760Z,4220
2017-11-26T10:44:21.257Z,3544
2017-11-26T10:44:46.731Z,3088
2017-11-26T10:45:12.222Z,2872
2017-11-26T10:45:37.744Z,2716
2017-11-26T10:46:03.263Z,2808
2017-11-26T10:46:28.774Z,2588
2017-11-26T10:46:54.224Z,2624
2017-11-26T10:47:19.705Z,2548
2017-11-26T10:47:45.178Z,2564
2017-11-26T10:48:10.702Z,2520
2017-11-26T10:48:36.199Z,2360
2017-11-26T10:49:01.634Z,2292
2017-11-26T10:49:27.105Z,2104
2017-11-26T10:49:52.640Z,2004
2017-11-26T10:50:18.140Z,2116
2017-11-26T10:50:43.645Z,2200
2017-11-26T10:51:09.143Z,2004
2017-11-26T10:51:34.615Z,1992
2017-11-26T10:52:00.089Z,2192
2017-11-26T10:52:25.578Z,2720
2017-11-26T10:52:51.054Z,3244
2017-11-26T10:53:16.516Z,3836
2017-11-26T10:53:41.982Z,4476
2017-11-26T10:54:07.466Z,4248
2017-11-26T10:54:32.934Z,4608
2017-11-26T10:54:58.380Z,5012
2017-11-26T10:55:23.863Z,5188
2017-11-26T10:55:49.323Z,5044
2017-11-26T10:56:14.823Z,4628